createdAt,value
2023-05-09T00:03:53.774Z,29.40
2023-05-09T00:08:56.668Z,24.60
2023-05-09T00:13:59.453Z,24.60
2023-05-09T00:19:03.536Z,30.40
2023-05-09T00:24:06.648Z,35.80
2023-05-09T00:29:09.443Z,44.60
2023-05-09T00:34:12.291Z,57.80
2023-05-09T00:39:15.197Z,67.40
2023-05-09T00:44:18.156Z,51.60
2023-05-09T00:49:20.971Z,58.00
2023-05-09T00:54:23.842Z,51.10
2023-05-09T00:59:27.475Z,33.10
2023-05-09T01:04:30.562Z,38.10
2023-05-09T01:09:58.436Z,34.20
2023-05-09T01:15:08.851Z,26.00
2023-05-09T01:20:47.607Z,27.20
2023-05-09T01:26:04.625Z,41.50
2023-05-09T01:31:09.705Z,24.50
2023-05-09T01:36:18.138Z,26.20
2023-05-09T01:41:23.439Z,27.80
2023-05-09T01:46:27.653Z,37.60
2023-05-09T01:51:31.840Z,26.60
2023-05-09T01:56:36.532Z,25.00
2023-05-09T02:01:39.429Z,55.30
2023-05-09T02:06:44.846Z,45.60
2023-05-09T02:11:47.805Z,26.30
2023-05-09T02:16:51.491Z,21.00
2023-05-09T02:21:54.333Z,24.30
2023-05-09T02:26:57.676Z,24.00
2023-05-09T02:37:05.270Z,21.70
2023-05-09T02:42:18.746Z,21.10
2023-05-09T02:52:24.918Z,21.60
2023-05-09T02:57:27.819Z,26.50
2023-05-09T03:02:31.042Z,26.30
2023-05-09T03:12:38.725Z,26.80
2023-05-09T03:17:41.872Z,26.90
2023-05-09T03:22:44.787Z,29.30
2023-05-09T03:27:47.572Z,28.40
2023-05-09T03:32:50.465Z,21.60
2023-05-09T03:37:53.324Z,17.20
2023-05-09T03:42:56.196Z,33.00
2023-05-09T03:47:59.427Z,61.10
2023-05-09T03:58:05.391Z,26.60
2023-05-09T04:03:08.437Z,37.00
2023-05-09T04:08:11.570Z,30.20
2023-05-09T04:13:14.424Z,33.10
2023-05-09T04:18:17.369Z,24.10
2023-05-09T04:23:20.180Z,36.80
2023-05-09T04:28:23.106Z,35.20
2023-05-09T04:33:25.990Z,25.20
2023-05-09T04:38:28.776Z,27.70
2023-05-09T04:43:32.724Z,27.70
2023-05-09T04:48:35.976Z,25.10
2023-05-09T04:53:38.968Z,37.20
2023-05-09T04:58:41.792Z,32.70
2023-05-09T05:03:46.309Z,30.70
2023-05-09T05:08:49.136Z,25.20
2023-05-09T05:13:52.069Z,19.60
2023-05-09T05:18:54.900Z,22.90
2023-05-09T05:23:57.700Z,23.80
2023-05-09T05:29:00.978Z,20.60
2023-05-09T05:39:06.561Z,21.50
2023-05-09T05:44:09.546Z,20.20
2023-05-09T05:49:12.395Z,21.60
2023-05-09T05:54:15.252Z,21.00
2023-05-09T05:59:18.070Z,17.40
2023-05-09T06:04:21.440Z,25.10
2023-05-09T06:09:24.310Z,19.40
2023-05-09T06:14:27.212Z,17.10
2023-05-09T06:19:30.049Z,19.20
2023-05-09T06:24:36.212Z,16.30
2023-05-09T06:29:39.512Z,16.90
2023-05-09T06:39:46.274Z,14.50
2023-05-09T06:44:49.187Z,15.50
2023-05-09T06:54:55.150Z,17.00
2023-05-09T07:05:00.813Z,22.30
2023-05-09T07:15:22.941Z,22.10
2023-05-09T07:20:36.400Z,17.30
2023-05-09T07:25:39.746Z,24.40
2023-05-09T07:30:43.788Z,23.10
2023-05-09T07:35:46.752Z,15.20
2023-05-09T07:45:52.311Z,12.30
2023-05-09T07:55:59.594Z,10.90
2023-05-09T08:01:02.711Z,10.20
2023-05-09T08:11:08.412Z,10.70
2023-05-09T08:21:14.618Z,8.90
2023-05-09T08:31:20.357Z,12.20
2023-05-09T08:36:23.484Z,11.10
2023-05-09T08:41:29.580Z,29.00
2023-05-09T08:46:37.164Z,98.40
2023-05-09T08:51:41.051Z,9.60
2023-05-09T08:56:43.941Z,10.20
2023-05-09T09:01:48.025Z,8.60
2023-05-09T09:06:52.204Z,11.00
2023-05-09T09:11:56.983Z,8.20
2023-05-09T09:17:01.196Z,9.90
2023-05-09T09:22:05.076Z,12.60
2023-05-09T09:27:08.525Z,9.80
2023-05-09T09:32:11.749Z,10.10
2023-05-09T09:37:24.311Z,25.20
2023-05-09T09:42:27.145Z,52.70
2023-05-09T09:47:33.274Z,48.20
2023-05-09T09:52:36.730Z,9.60
2023-05-09T09:57:41.808Z,13.90
2023-05-09T10:02:54.930Z,13.30
2023-05-09T10:07:59.419Z,11.40
2023-05-09T10:13:09.678Z,8.10
2023-05-09T10:18:18.502Z,7.50
2023-05-09T10:23:23.612Z,9.10
2023-05-09T10:28:32.097Z,7.90
2023-05-09T10:33:42.749Z,12.30
2023-05-09T10:38:47.387Z,11.00
2023-05-09T10:43:50.425Z,6.40
2023-05-09T10:48:55.225Z,11.20
2023-05-09T10:53:58.851Z,13.10
2023-05-09T10:59:02.347Z,6.90
2023-05-09T11:04:13.152Z,6.40
2023-05-09T11:09:27.108Z,8.00
2023-05-09T11:14:42.553Z,7.20
2023-05-09T11:19:45.574Z,8.30
2023-05-09T11:24:50.977Z,6.30
2023-05-09T11:29:59.621Z,9.70
2023-05-09T11:35:17.889Z,8.60
2023-05-09T11:40:22.960Z,11.90
2023-05-09T11:45:28.691Z,11.30
2023-05-09T11:50:31.697Z,8.50
2023-05-09T11:55:38.190Z,6.80
2023-05-09T12:00:47.707Z,10.80
2023-05-09T12:05:51.098Z,10.10
2023-05-09T12:10:54.071Z,9.00
2023-05-09T12:16:02.691Z,11.30
2023-05-09T12:21:07.228Z,9.50
2023-05-09T12:26:11.077Z,7.50
2023-05-09T12:31:14.706Z,7.00
2023-05-09T12:36:18.840Z,8.20
2023-05-09T12:46:33.837Z,8.90
2023-05-09T12:51:37.917Z,8.20
2023-05-09T12:56:41.027Z,10.30
2023-05-09T13:01:44.520Z,13.30
2023-05-09T13:06:52.384Z,7.50
2023-05-09T13:11:55.468Z,10.90
2023-05-09T13:16:58.456Z,9.70
2023-05-09T13:22:02.097Z,9.10
2023-05-09T13:27:05.803Z,7.20
2023-05-09T13:32:08.895Z,10.80
2023-05-09T13:37:11.770Z,11.60
2023-05-09T13:42:14.600Z,7.70
2023-05-09T13:47:17.467Z,10.50
2023-05-09T13:52:20.314Z,9.00
2023-05-09T13:57:23.154Z,7.10
2023-05-09T14:02:26.133Z,11.50
2023-05-09T14:07:29.370Z,13.30
2023-05-09T14:12:32.796Z,8.30
2023-05-09T14:17:35.888Z,5.40
2023-05-09T14:22:38.806Z,15.70
2023-05-09T14:27:42.096Z,5.90
2023-05-09T14:32:45.498Z,9.20
2023-05-09T14:37:48.377Z,6.10
2023-05-09T14:42:51.333Z,10.00
2023-05-09T14:47:54.251Z,7.40
2023-05-09T14:52:57.415Z,7.60
2023-05-09T14:58:00.255Z,6.40
2023-05-09T15:03:03.267Z,10.20
2023-05-09T15:08:07.133Z,7.40
2023-05-09T15:13:11.473Z,9.00
2023-05-09T15:18:16.561Z,11.40
2023-05-09T15:23:19.460Z,7.80
2023-05-09T15:28:22.459Z,10.60
2023-05-09T15:33:25.583Z,9.00
2023-05-09T15:38:28.643Z,7.60
2023-05-09T15:43:31.509Z,6.50
2023-05-09T15:48:34.307Z,8.50
2023-05-09T15:53:37.195Z,11.50
2023-05-09T15:58:40.478Z,10.10
2023-05-09T16:03:43.522Z,8.90
2023-05-09T16:08:46.597Z,8.70
2023-05-09T16:13:49.528Z,11.00
2023-05-09T16:18:52.720Z,9.20
2023-05-09T16:23:58.002Z,7.70
2023-05-09T16:29:02.150Z,6.90
2023-05-09T16:34:05.020Z,7.60
2023-05-09T16:39:07.852Z,9.70
2023-05-09T16:44:10.876Z,9.30
2023-05-09T16:49:17.743Z,10.70
2023-05-09T16:54:21.517Z,11.40
2023-05-09T16:59:24.343Z,9.10
2023-05-09T17:04:27.726Z,10.40
2023-05-09T17:09:30.622Z,8.70
2023-05-09T17:14:33.479Z,8.40
2023-05-09T17:19:36.823Z,15.00
2023-05-09T17:24:39.663Z,7.90
2023-05-09T17:29:42.527Z,7.40
2023-05-09T17:34:45.329Z,10.20
2023-05-09T17:39:48.156Z,6.20
2023-05-09T17:44:51.096Z,7.70
2023-05-09T17:49:53.909Z,7.30
2023-05-09T17:54:56.811Z,10.90
2023-05-09T18:00:00.499Z,8.40
2023-05-09T18:05:03.424Z,7.60
2023-05-09T18:10:07.955Z,9.20
2023-05-09T18:15:11.201Z,10.30
2023-05-09T18:20:14.311Z,7.90
2023-05-09T18:25:17.437Z,10.80
2023-05-09T18:35:25.028Z,12.60
2023-05-09T18:40:28.540Z,8.50
2023-05-09T18:45:31.330Z,11.30
2023-05-09T18:50:34.305Z,25.50
2023-05-09T19:00:40.266Z,12.30
2023-05-09T19:05:44.087Z,14.20
2023-05-09T19:10:46.895Z,15.70
2023-05-09T19:15:50.285Z,18.20
2023-05-09T19:20:53.116Z,16.20
2023-05-09T19:25:55.988Z,15.30
2023-05-09T19:30:59.146Z,10.70
2023-05-09T19:41:04.806Z,33.90
2023-05-09T19:46:07.756Z,75.00
2023-05-09T19:51:12.576Z,64.30
2023-05-09T19:56:15.752Z,59.60
2023-05-09T20:01:19.536Z,57.70
2023-05-09T20:11:42.893Z,26.50
2023-05-09T20:16:45.798Z,36.20
2023-05-09T20:21:48.625Z,27.30
2023-05-09T20:26:51.557Z,46.20
2023-05-09T20:31:54.373Z,34.80
2023-05-09T20:36:57.095Z,25.90
2023-05-09T20:42:02.529Z,23.60
2023-05-09T20:47:05.975Z,16.90
2023-05-09T20:52:08.783Z,36.30
2023-05-09T20:57:11.523Z,38.80
2023-05-09T21:02:14.333Z,34.60
2023-05-09T21:07:20.058Z,74.10
2023-05-09T21:12:23.135Z,80.80
2023-05-09T21:17:26.232Z,44.30
2023-05-09T21:22:29.221Z,42.40
2023-05-09T21:27:32.007Z,58.90
2023-05-09T21:32:34.836Z,39.50
2023-05-09T21:37:37.672Z,54.90
2023-05-09T21:42:41.238Z,55.10
2023-05-09T21:47:44.077Z,73.00
2023-05-09T21:52:47.037Z,36.00
2023-05-09T21:57:49.802Z,51.20
2023-05-09T22:02:52.664Z,35.80
2023-05-09T22:07:55.660Z,33.70
2023-05-09T22:12:58.477Z,38.20
2023-05-09T22:18:01.464Z,24.80
2023-05-09T22:23:04.350Z,34.30
2023-05-09T22:28:07.206Z,24.90
2023-05-09T22:33:10.014Z,20.30
2023-05-09T22:38:12.839Z,21.40
2023-05-09T22:43:15.671Z,20.50
2023-05-09T22:48:18.513Z,41.20
2023-05-09T22:53:21.342Z,31.70
2023-05-09T22:58:24.222Z,24.00
2023-05-09T23:03:27.242Z,18.40
2023-05-09T23:08:31.985Z,23.70
2023-05-09T23:13:34.802Z,23.10
2023-05-09T23:18:37.642Z,24.20
2023-05-09T23:23:40.607Z,21.70
2023-05-09T23:28:43.399Z,20.60
2023-05-09T23:33:46.338Z,19.50
2023-05-09T23:38:49.175Z,24.90
2023-05-09T23:43:52.110Z,22.50
2023-05-09T23:48:55.754Z,19.50
2023-05-09T23:53:58.585Z,17.70
2023-05-09T23:59:01.413Z,20.00
